Ufa International Airport
UWUU : now visible

Airfield :











YOU CAN JOIN US ON...

 
LOGIN :

Register | Disclaimer

   EN    FR    IT 

 









Legend :    VFR   Marginal VFR   IFR   Intensive IFR   Very Intensive IFR
Visi :
Ceiling :
>= 8 km
>= 3000ft
5 to 8 km
1000 to 3000 ft
1500m to 5 km
500 to 1000 ft
800 to 1500m
200 to 500 ft
< 800m
< 200 ft
Symbols :   Thunderstorms  Fog  Heavy snow  Heavy precipitations  Wind > 20 kt






- Airport Elevation : 449 ft
- IATA code : UFA


UWUU - Ufa International

CURRENT METAR :
  • 020700Z 23008G13MPS 9999 BKN033 03/M11 Q1008 R32L/0///60 NOSIG

EXPIRED METARs :
  • 020630Z 23009MPS 9999 BKN033 02/M11 Q1008 R32L/0///60 NOSIG
  • 020600Z 23008MPS 200V260 9999 SCT040 01/M10 Q1007 R32L/0///60 NOSIG
  • 020530Z 23008MPS 9999 SCT040 01/M09 Q1007 R32L/0///60 NOSIG
  • 020500Z 24007MPS 9999 SCT040 00/M09 Q1007 R32L/0///60 NOSIG
  • 020430Z 23007MPS 9999 BKN040 M00/M08 Q1006 R32L/0///60 NOSIG

TAF TAF UWUU
Valid from the 02 at 06:00 until the 03 at 06:00 UTC


020453Z 0206/0306 21007G12MPS 9999 BKN030 TX04/0209Z TNM01/0221Z
TEMPO 0206/0215 24008G14MPS
TEMPO 0215/0306 20005MPS



MET'MAP, your aeronautical weather chart ! - Copyright ORBIFLY December 2007 - Disclaimer

ORBIFLY MET'MAP TEAM :

Programming & Development : Alexandra Zaïnal
Concept & original design : Baudouin d'Aumeries
Assistance for programming : Marc-Olivier Méhu
Technical & hardware support : Manuel Goepfert

Contact : metmap@orbifly.com




SOURCES & CREDITS :

   NOAA       Earth
Advisory